createdAt,value
2022-08-25T00:00:12.550Z,7.00
2022-08-25T00:02:59.586Z,7.13
2022-08-25T00:05:32.508Z,7.32
2022-08-25T00:08:01.963Z,7.88
2022-08-25T00:10:29.972Z,7.03
2022-08-25T00:12:56.953Z,7.32
2022-08-25T00:15:24.112Z,7.30
2022-08-25T00:17:51.609Z,7.20
2022-08-25T00:20:19.016Z,7.47
2022-08-25T00:22:45.917Z,7.82
2022-08-25T00:25:13.115Z,7.82
2022-08-25T00:27:40.010Z,7.72
2022-08-25T00:30:07.682Z,6.95
2022-08-25T00:32:34.792Z,8.02
2022-08-25T00:35:02.905Z,7.07
2022-08-25T00:37:29.824Z,6.82
2022-08-25T00:39:58.582Z,7.28
2022-08-25T00:42:26.892Z,7.70
2022-08-25T00:44:54.004Z,7.78
2022-08-25T00:47:21.139Z,8.77
2022-08-25T00:49:51.753Z,6.95
2022-08-25T00:52:23.880Z,6.88
2022-08-25T00:55:07.904Z,6.97
2022-08-25T00:57:56.448Z,7.10
2022-08-25T01:00:34.724Z,7.47
2022-08-25T01:03:02.252Z,7.07
2022-08-25T01:05:30.747Z,7.35
2022-08-25T01:07:59.651Z,7.95
2022-08-25T01:10:28.203Z,7.30
2022-08-25T01:13:01.336Z,8.57
2022-08-25T01:15:29.796Z,9.77
2022-08-25T01:17:57.968Z,7.65
2022-08-25T01:20:29.747Z,7.43
2022-08-25T01:22:57.793Z,7.50
2022-08-25T01:25:34.016Z,7.43
2022-08-25T01:28:01.498Z,7.43
2022-08-25T01:30:28.640Z,7.97
2022-08-25T01:32:55.527Z,7.30
2022-08-25T01:35:22.408Z,8.00
2022-08-25T01:37:49.829Z,7.15
2022-08-25T01:40:16.920Z,7.65
2022-08-25T01:43:06.629Z,7.35
2022-08-25T01:45:34.835Z,6.88
2022-08-25T01:48:02.859Z,6.80
2022-08-25T01:50:29.972Z,7.30
2022-08-25T01:53:17.941Z,7.90
2022-08-25T01:55:55.874Z,7.38
2022-08-25T01:58:26.173Z,7.70
2022-08-25T02:00:55.854Z,7.68
2022-08-25T02:03:24.881Z,6.55
2022-08-25T02:05:53.593Z,7.32
2022-08-25T02:08:22.321Z,7.00
2022-08-25T02:10:50.924Z,6.47
2022-08-25T02:13:18.591Z,6.70
2022-08-25T02:15:49.468Z,6.45
2022-08-25T02:18:17.288Z,6.82
2022-08-25T02:20:44.765Z,5.82
2022-08-25T02:23:11.929Z,6.28
2022-08-25T02:25:40.613Z,5.88
2022-08-25T02:28:09.044Z,6.60
2022-08-25T02:30:38.131Z,6.03
2022-08-25T02:33:05.414Z,6.05
2022-08-25T02:35:32.907Z,6.38
2022-08-25T02:37:59.947Z,6.43
2022-08-25T02:40:27.637Z,6.65
2022-08-25T02:42:55.481Z,6.10
2022-08-25T02:45:22.636Z,6.40
2022-08-25T02:47:49.916Z,6.10
2022-08-25T02:50:17.009Z,5.80
2022-08-25T02:52:44.879Z,5.68
2022-08-25T02:55:14.161Z,5.75
2022-08-25T02:57:42.132Z,6.50
2022-08-25T03:00:14.556Z,5.78
2022-08-25T03:02:41.660Z,5.78
2022-08-25T03:05:10.309Z,5.60
2022-08-25T03:07:38.526Z,6.57
2022-08-25T03:10:15.269Z,5.93
2022-08-25T03:12:42.693Z,7.05
2022-08-25T03:15:12.903Z,6.30
2022-08-25T03:17:40.712Z,6.40
2022-08-25T03:20:08.457Z,6.18
2022-08-25T03:22:36.377Z,6.28
2022-08-25T03:25:24.289Z,6.28
2022-08-25T03:27:52.252Z,6.93
2022-08-25T03:30:19.844Z,6.70
2022-08-25T03:32:47.016Z,6.15
2022-08-25T03:35:14.720Z,6.72
2022-08-25T03:37:41.676Z,9.20
2022-08-25T03:40:15.315Z,6.60
2022-08-25T03:42:45.506Z,6.35
2022-08-25T03:45:14.693Z,6.20
2022-08-25T03:47:42.309Z,7.57
2022-08-25T03:50:11.372Z,6.35
2022-08-25T03:52:42.742Z,8.07
2022-08-25T03:55:12.533Z,7.90
2022-08-25T03:57:39.918Z,7.75
2022-08-25T04:00:09.782Z,7.60
2022-08-25T04:02:40.530Z,8.20
2022-08-25T04:05:08.525Z,7.10
2022-08-25T04:07:36.196Z,8.15
2022-08-25T04:10:08.015Z,8.13
2022-08-25T04:12:35.033Z,7.78
2022-08-25T04:15:03.465Z,7.82
2022-08-25T04:17:31.030Z,7.28
2022-08-25T04:19:58.399Z,7.25
2022-08-25T04:22:25.696Z,8.25
2022-08-25T04:24:56.200Z,7.97
2022-08-25T04:27:23.264Z,8.85
2022-08-25T04:29:50.215Z,8.30
2022-08-25T04:32:17.402Z,8.88
2022-08-25T04:34:44.330Z,8.32
2022-08-25T04:37:11.583Z,9.05
2022-08-25T04:39:38.816Z,9.68
2022-08-25T04:42:05.873Z,9.52
2022-08-25T04:44:33.197Z,9.88
2022-08-25T04:47:01.309Z,10.40
2022-08-25T04:49:28.804Z,9.75
2022-08-25T04:51:57.608Z,10.38
2022-08-25T04:54:25.329Z,9.50
2022-08-25T04:56:56.451Z,10.13
2022-08-25T04:59:27.330Z,9.55
2022-08-25T05:01:58.718Z,9.60
2022-08-25T05:04:28.590Z,9.57
2022-08-25T05:06:58.326Z,9.48
2022-08-25T05:09:26.289Z,9.70
2022-08-25T05:11:54.680Z,9.93
2022-08-25T05:14:25.682Z,9.30
2022-08-25T05:16:58.034Z,9.75
2022-08-25T05:19:26.400Z,9.18
2022-08-25T05:21:53.960Z,9.82
2022-08-25T05:24:22.314Z,9.40
2022-08-25T05:26:49.477Z,8.98
2022-08-25T05:29:17.514Z,8.40
2022-08-25T05:31:49.976Z,9.30
2022-08-25T05:34:19.569Z,9.50
2022-08-25T05:36:47.898Z,9.43
2022-08-25T05:39:15.029Z,9.60
2022-08-25T05:41:42.286Z,9.68
2022-08-25T05:44:09.680Z,8.65
2022-08-25T05:46:36.696Z,8.98
2022-08-25T05:49:03.968Z,9.13
2022-08-25T05:51:30.881Z,8.05
2022-08-25T05:53:57.885Z,9.07
2022-08-25T05:56:25.145Z,8.73
2022-08-25T05:58:52.044Z,8.15
2022-08-25T06:01:45.069Z,8.43
2022-08-25T06:04:15.421Z,8.25
2022-08-25T06:06:42.796Z,8.30
2022-08-25T06:09:10.249Z,7.40
2022-08-25T06:11:40.052Z,7.90
2022-08-25T06:14:09.320Z,8.45
2022-08-25T06:16:38.869Z,9.23
2022-08-25T06:19:08.361Z,8.15
2022-08-25T06:21:37.378Z,8.38
2022-08-25T06:24:05.112Z,7.93
2022-08-25T06:26:32.269Z,7.63
2022-08-25T06:28:59.557Z,7.50
2022-08-25T06:31:26.687Z,7.95
2022-08-25T06:33:53.928Z,7.47
2022-08-25T06:36:21.275Z,7.15
2022-08-25T06:38:48.431Z,7.00
2022-08-25T06:41:16.662Z,7.22
2022-08-25T06:43:49.050Z,7.68
2022-08-25T06:46:35.570Z,9.05
2022-08-25T06:49:05.608Z,8.77
2022-08-25T06:51:35.650Z,6.72
2022-08-25T06:54:04.236Z,6.43
2022-08-25T06:56:31.245Z,7.30
2022-08-25T06:58:58.776Z,7.20
2022-08-25T07:01:27.277Z,7.05
2022-08-25T07:03:57.598Z,6.72
2022-08-25T07:06:27.146Z,7.57
2022-08-25T07:08:54.535Z,6.65
2022-08-25T07:11:22.041Z,6.50
2022-08-25T07:13:50.111Z,6.10
2022-08-25T07:16:18.686Z,6.47
2022-08-25T07:18:47.031Z,6.68
2022-08-25T07:21:15.458Z,6.10
2022-08-25T07:23:43.181Z,5.22
2022-08-25T07:26:39.418Z,4.95
2022-08-25T07:29:14.243Z,5.38
2022-08-25T07:31:41.823Z,5.22
2022-08-25T07:34:28.403Z,5.18
2022-08-25T07:36:56.908Z,5.22
2022-08-25T07:39:25.439Z,4.97
2022-08-25T07:41:53.310Z,4.78
2022-08-25T07:44:22.643Z,4.90
2022-08-25T07:46:51.242Z,4.90
2022-08-25T07:49:23.127Z,4.82
2022-08-25T07:52:03.735Z,4.80
2022-08-25T07:54:33.915Z,4.82
2022-08-25T07:57:04.236Z,4.70
2022-08-25T07:59:39.459Z,4.88
2022-08-25T08:02:17.743Z,5.45
2022-08-25T08:04:51.025Z,5.22
2022-08-25T08:07:23.171Z,5.22
2022-08-25T08:10:05.284Z,4.68
2022-08-25T08:12:39.584Z,4.60
2022-08-25T08:15:10.346Z,4.50
2022-08-25T08:17:39.516Z,5.10
2022-08-25T08:20:09.841Z,6.20
2022-08-25T08:22:41.674Z,4.45
2022-08-25T08:25:11.414Z,4.75
2022-08-25T08:27:46.278Z,4.68
2022-08-25T08:30:14.301Z,4.43
2022-08-25T08:33:08.194Z,4.72
2022-08-25T08:35:28.640Z,4.78
2022-08-25T08:37:55.726Z,5.78
2022-08-25T08:40:22.890Z,4.45
2022-08-25T08:42:53.286Z,4.95
2022-08-25T08:45:35.675Z,4.57
2022-08-25T08:48:19.731Z,3.72
2022-08-25T08:51:16.746Z,5.15
2022-08-25T08:53:46.281Z,5.20
2022-08-25T08:56:20.776Z,4.88
2022-08-25T08:58:56.105Z,4.63
2022-08-25T09:01:53.295Z,4.65
2022-08-25T09:04:29.607Z,4.28
2022-08-25T09:06:59.895Z,4.45
2022-08-25T09:09:35.665Z,3.47
2022-08-25T09:12:29.112Z,4.53
2022-08-25T09:15:12.587Z,3.90
2022-08-25T09:17:54.722Z,3.58
2022-08-25T09:21:10.580Z,4.53
2022-08-25T09:24:25.099Z,4.65
2022-08-25T09:27:03.216Z,4.15
2022-08-25T09:29:53.471Z,3.90
2022-08-25T09:32:24.191Z,3.78
2022-08-25T09:34:59.566Z,3.40
2022-08-25T09:37:26.911Z,4.53
2022-08-25T09:39:55.891Z,4.15
2022-08-25T09:42:49.772Z,4.20
2022-08-25T09:45:32.953Z,5.10
2022-08-25T09:48:00.900Z,4.68
2022-08-25T09:50:34.928Z,3.83
2022-08-25T09:53:17.319Z,3.58
2022-08-25T09:55:59.897Z,3.55
2022-08-25T09:58:27.554Z,4.03
2022-08-25T10:01:20.709Z,3.90
2022-08-25T10:03:59.001Z,4.63
2022-08-25T10:06:30.461Z,4.68
2022-08-25T10:09:07.736Z,4.75
2022-08-25T10:11:38.045Z,4.55
2022-08-25T10:14:17.717Z,4.03
2022-08-25T10:16:47.617Z,4.32
2022-08-25T10:19:30.187Z,4.13
2022-08-25T10:22:20.875Z,5.85
2022-08-25T10:24:49.176Z,3.80
2022-08-25T10:27:29.430Z,4.45
2022-08-25T10:30:08.444Z,4.10
2022-08-25T10:32:40.571Z,4.70
2022-08-25T10:35:13.783Z,5.20
2022-08-25T10:37:56.022Z,4.18
2022-08-25T10:41:01.697Z,4.28
2022-08-25T10:43:39.625Z,4.00
2022-08-25T10:46:12.650Z,4.00
2022-08-25T10:48:55.431Z,4.30
2022-08-25T10:51:36.514Z,4.70
2022-08-25T10:54:17.645Z,4.45
2022-08-25T10:57:00.930Z,4.95
2022-08-25T10:59:51.572Z,4.45
2022-08-25T11:02:57.316Z,5.00
2022-08-25T11:05:36.879Z,3.67
2022-08-25T11:08:11.627Z,4.78
2022-08-25T11:10:48.601Z,4.22
2022-08-25T11:13:55.258Z,4.20
2022-08-25T11:16:37.230Z,3.78
2022-08-25T11:19:13.303Z,3.90
2022-08-25T11:22:12.295Z,4.30
2022-08-25T11:24:51.463Z,4.72
2022-08-25T11:27:24.395Z,4.47
2022-08-25T11:30:14.685Z,5.78
2022-08-25T11:32:49.724Z,3.72
2022-08-25T11:35:28.228Z,4.90
2022-08-25T11:38:17.041Z,5.00
2022-08-25T11:40:44.527Z,3.75
2022-08-25T11:43:59.686Z,3.72
2022-08-25T11:47:05.911Z,4.95
2022-08-25T11:50:06.281Z,4.78
2022-08-25T11:52:33.210Z,5.50
2022-08-25T11:55:29.553Z,4.72
2022-08-25T11:58:19.714Z,5.00
2022-08-25T12:00:47.325Z,4.57
2022-08-25T12:03:32.696Z,4.90
2022-08-25T12:06:15.434Z,4.72
2022-08-25T12:09:00.732Z,5.60
2022-08-25T12:11:49.676Z,5.90
2022-08-25T12:14:22.769Z,4.88
2022-08-25T12:16:57.306Z,5.00
2022-08-25T12:19:34.710Z,5.30
2022-08-25T12:22:03.416Z,5.63
2022-08-25T12:24:47.310Z,5.50
2022-08-25T12:27:58.211Z,5.03
2022-08-25T12:30:38.570Z,5.65
2022-08-25T12:33:42.274Z,5.97
2022-08-25T12:36:25.360Z,5.53
2022-08-25T12:38:54.228Z,5.07
2022-08-25T12:41:24.474Z,5.35
2022-08-25T12:43:54.570Z,5.78
2022-08-25T12:46:22.963Z,5.22
2022-08-25T12:49:06.533Z,4.63
2022-08-25T12:51:48.439Z,5.18
2022-08-25T12:54:36.496Z,6.53
2022-08-25T12:57:29.540Z,5.05
2022-08-25T13:00:16.648Z,5.22
2022-08-25T13:03:06.277Z,5.90
2022-08-25T13:05:43.094Z,5.03
2022-08-25T13:08:33.625Z,5.93
2022-08-25T13:11:39.705Z,4.75
2022-08-25T13:14:23.119Z,6.20
2022-08-25T13:16:56.112Z,5.68
2022-08-25T13:19:25.680Z,5.68
2022-08-25T13:21:55.890Z,5.72
2022-08-25T13:24:40.643Z,4.90
2022-08-25T13:27:18.113Z,5.70
2022-08-25T13:29:56.434Z,4.88
2022-08-25T13:32:38.169Z,5.10
2022-08-25T13:35:32.489Z,4.75
2022-08-25T13:38:18.058Z,6.03
2022-08-25T13:40:45.824Z,5.45
2022-08-25T13:43:15.054Z,5.53
2022-08-25T13:45:48.281Z,4.85
2022-08-25T13:48:32.696Z,5.60
2022-08-25T13:51:18.644Z,4.93
2022-08-25T13:54:00.276Z,4.72
2022-08-25T13:56:38.704Z,4.22
2022-08-25T13:59:26.869Z,4.47
2022-08-25T14:01:55.564Z,5.00
2022-08-25T14:04:51.073Z,4.57
2022-08-25T14:07:25.956Z,4.10
2022-08-25T14:09:53.335Z,4.10
2022-08-25T14:12:29.545Z,4.88
2022-08-25T14:15:00.991Z,4.72
2022-08-25T14:17:39.478Z,4.63
2022-08-25T14:20:28.736Z,5.32
2022-08-25T14:22:59.294Z,4.97
2022-08-25T14:25:28.825Z,5.28
2022-08-25T14:28:08.358Z,5.00
2022-08-25T14:30:39.983Z,4.75
2022-08-25T14:33:12.316Z,3.95
2022-08-25T14:35:40.267Z,5.28
2022-08-25T14:38:11.731Z,4.28
2022-08-25T14:40:39.861Z,4.55
2022-08-25T14:43:09.625Z,4.70
2022-08-25T14:45:41.262Z,4.53
2022-08-25T14:48:14.384Z,5.53
2022-08-25T14:50:42.424Z,4.78
2022-08-25T14:53:11.462Z,5.38
2022-08-25T14:55:39.814Z,5.05
2022-08-25T14:58:08.721Z,4.72
2022-08-25T15:00:43.491Z,4.75
2022-08-25T15:03:15.462Z,4.88
2022-08-25T15:05:42.903Z,4.53
2022-08-25T15:08:32.913Z,4.30
2022-08-25T15:11:00.817Z,4.32
2022-08-25T15:13:29.343Z,4.55
2022-08-25T15:15:58.581Z,3.95
2022-08-25T15:18:27.408Z,4.30
2022-08-25T15:20:54.517Z,4.93
2022-08-25T15:23:21.847Z,5.18
2022-08-25T15:25:52.832Z,4.20
2022-08-25T15:28:22.314Z,5.25
2022-08-25T15:30:50.570Z,4.03
2022-08-25T15:33:18.282Z,4.93
2022-08-25T15:35:46.447Z,3.95
2022-08-25T15:38:16.978Z,4.60
2022-08-25T15:40:44.131Z,4.65
2022-08-25T15:43:10.975Z,4.63
2022-08-25T15:45:38.252Z,4.63
2022-08-25T15:48:07.399Z,4.47
2022-08-25T15:50:36.815Z,4.70
2022-08-25T15:53:08.302Z,4.78
2022-08-25T15:55:41.122Z,4.43
2022-08-25T15:58:08.696Z,4.43
2022-08-25T16:00:37.867Z,5.22
2022-08-25T16:03:07.139Z,4.47
2022-08-25T16:05:45.086Z,3.65
2022-08-25T16:08:19.106Z,5.03
2022-08-25T16:10:47.524Z,4.47
2022-08-25T16:13:14.990Z,4.20
2022-08-25T16:15:47.279Z,4.85
2022-08-25T16:18:22.717Z,4.68
2022-08-25T16:20:50.310Z,4.28
2022-08-25T16:23:19.141Z,4.65
2022-08-25T16:25:48.134Z,4.65
2022-08-25T16:28:19.477Z,4.30
2022-08-25T16:30:52.837Z,5.03
2022-08-25T16:33:20.909Z,4.22
2022-08-25T16:35:49.323Z,4.20
2022-08-25T16:38:16.685Z,4.35
2022-08-25T16:40:46.421Z,4.60
2022-08-25T16:43:13.608Z,4.25
2022-08-25T16:45:40.666Z,4.93
2022-08-25T16:48:08.218Z,4.78
2022-08-25T16:50:39.167Z,5.20
2022-08-25T16:53:24.907Z,4.80
2022-08-25T16:56:01.509Z,4.32
2022-08-25T16:58:30.169Z,4.85
2022-08-25T17:01:09.566Z,4.50
2022-08-25T17:03:38.703Z,5.40
2022-08-25T17:06:11.221Z,5.88
2022-08-25T17:08:39.820Z,4.95
2022-08-25T17:11:11.364Z,4.82
2022-08-25T17:13:44.482Z,4.75
2022-08-25T17:16:12.849Z,4.70
2022-08-25T17:18:42.809Z,5.72
2022-08-25T17:21:24.091Z,6.25
2022-08-25T17:23:53.727Z,4.82
2022-08-25T17:26:28.030Z,5.50
2022-08-25T17:29:01.109Z,6.22
2022-08-25T17:31:30.031Z,5.47
2022-08-25T17:33:58.879Z,5.30
2022-08-25T17:36:27.012Z,5.25
2022-08-25T17:38:56.854Z,4.90
2022-08-25T17:41:24.977Z,5.03
2022-08-25T17:43:52.214Z,6.10
2022-08-25T17:46:19.349Z,4.82
2022-08-25T17:48:46.813Z,5.53
2022-08-25T17:51:15.897Z,5.70
2022-08-25T17:53:44.217Z,5.60
2022-08-25T17:56:15.646Z,5.43
2022-08-25T17:58:44.076Z,5.25
2022-08-25T18:01:22.362Z,5.57
2022-08-25T18:03:50.584Z,5.57
2022-08-25T18:06:18.215Z,6.03
2022-08-25T18:08:50.284Z,6.85
2022-08-25T18:11:20.853Z,6.57
2022-08-25T18:13:47.857Z,5.38
2022-08-25T18:16:17.486Z,5.90
2022-08-25T18:18:45.134Z,5.43
2022-08-25T18:21:14.333Z,5.20
2022-08-25T18:23:42.477Z,5.68
2022-08-25T18:26:12.975Z,5.70
2022-08-25T18:28:40.609Z,5.05
2022-08-25T18:31:13.354Z,5.13
2022-08-25T18:33:44.810Z,5.53
2022-08-25T18:36:13.266Z,5.38
2022-08-25T18:39:00.432Z,5.10
2022-08-25T18:41:35.038Z,5.70
2022-08-25T18:44:02.974Z,6.05
2022-08-25T18:46:30.886Z,5.30
2022-08-25T18:48:58.113Z,6.20
2022-08-25T18:51:25.102Z,5.78
2022-08-25T18:53:54.638Z,5.60
2022-08-25T18:56:28.541Z,5.25
2022-08-25T18:58:57.523Z,5.75
2022-08-25T19:01:25.614Z,5.10
2022-08-25T19:03:54.015Z,6.00
2022-08-25T19:06:22.091Z,5.15
2022-08-25T19:08:49.207Z,6.03
2022-08-25T19:11:17.357Z,5.20
2022-08-25T19:13:51.574Z,4.57
2022-08-25T19:16:34.615Z,5.15
2022-08-25T19:19:03.939Z,5.32
2022-08-25T19:21:35.017Z,5.82
2022-08-25T19:24:03.054Z,5.47
2022-08-25T19:26:33.249Z,5.75
2022-08-25T19:29:01.310Z,5.82
2022-08-25T19:31:33.006Z,6.57
2022-08-25T19:34:02.139Z,5.70
2022-08-25T19:36:34.521Z,5.80
2022-08-25T19:39:05.080Z,6.30
2022-08-25T19:41:33.747Z,7.53
2022-08-25T19:44:02.048Z,13.52
2022-08-25T19:46:36.003Z,14.27
2022-08-25T19:49:08.770Z,9.90
2022-08-25T19:51:44.055Z,9.40
2022-08-25T19:54:16.020Z,8.15
2022-08-25T19:56:54.397Z,8.35
2022-08-25T19:59:26.806Z,9.38
2022-08-25T20:02:12.467Z,8.48
2022-08-25T20:04:49.671Z,10.68
2022-08-25T20:07:20.285Z,10.07
2022-08-25T20:09:50.553Z,12.63
2022-08-25T20:12:18.363Z,11.57
2022-08-25T20:14:46.862Z,10.40
2022-08-25T20:17:24.822Z,9.98
2022-08-25T20:19:55.882Z,10.40
2022-08-25T20:22:28.535Z,8.18
2022-08-25T20:24:58.619Z,6.78
2022-08-25T20:27:33.817Z,6.65
2022-08-25T20:30:02.647Z,6.65
2022-08-25T20:32:33.686Z,6.68
2022-08-25T20:35:02.101Z,6.63
2022-08-25T20:37:29.279Z,6.63
2022-08-25T20:39:56.663Z,6.15
2022-08-25T20:42:24.231Z,6.53
2022-08-25T20:44:52.328Z,6.60
2022-08-25T20:47:24.156Z,8.38
2022-08-25T20:49:51.457Z,7.43
2022-08-25T20:52:19.632Z,7.07
2022-08-25T20:54:50.319Z,6.78
2022-08-25T20:57:24.401Z,7.07
2022-08-25T20:59:54.893Z,7.18
2022-08-25T21:02:23.896Z,7.25
2022-08-25T21:04:52.586Z,6.70
2022-08-25T21:07:23.918Z,6.72
2022-08-25T21:09:51.224Z,6.28
2022-08-25T21:12:19.248Z,6.97
2022-08-25T21:14:46.756Z,7.78
2022-08-25T21:17:15.640Z,7.38
2022-08-25T21:19:49.974Z,7.28
2022-08-25T21:22:17.416Z,7.13
2022-08-25T21:24:45.303Z,7.50
2022-08-25T21:27:12.514Z,7.25
2022-08-25T21:29:44.381Z,7.30
2022-08-25T21:32:11.798Z,8.18
2022-08-25T21:34:39.439Z,7.28
2022-08-25T21:37:07.162Z,7.15
2022-08-25T21:39:35.323Z,7.65
2022-08-25T21:42:03.645Z,6.68
2022-08-25T21:44:31.190Z,6.85
2022-08-25T21:46:58.191Z,7.90
2022-08-25T21:49:25.868Z,7.50
2022-08-25T21:52:00.762Z,7.25
2022-08-25T21:54:29.187Z,7.30
2022-08-25T21:57:00.548Z,7.45
2022-08-25T21:59:36.678Z,7.68
2022-08-25T22:02:07.989Z,6.75
2022-08-25T22:04:38.919Z,7.63
2022-08-25T22:07:07.771Z,7.50
2022-08-25T22:09:35.594Z,6.95
2022-08-25T22:12:04.090Z,6.45
2022-08-25T22:14:32.336Z,7.85
2022-08-25T22:16:59.745Z,7.00
2022-08-25T22:19:27.325Z,7.28
2022-08-25T22:21:56.152Z,6.53
2022-08-25T22:24:28.096Z,7.10
2022-08-25T22:26:56.590Z,7.22
2022-08-25T22:29:25.475Z,7.18
2022-08-25T22:31:58.603Z,6.88
2022-08-25T22:34:32.644Z,7.35
2022-08-25T22:37:01.311Z,7.47
2022-08-25T22:39:29.266Z,7.47
2022-08-25T22:41:57.105Z,7.03
2022-08-25T22:44:25.702Z,6.72
2022-08-25T22:46:53.422Z,7.38
2022-08-25T22:49:21.809Z,7.68
2022-08-25T22:51:49.206Z,7.78
2022-08-25T22:54:16.200Z,7.50
2022-08-25T22:56:43.528Z,6.35
2022-08-25T22:59:12.964Z,7.32
2022-08-25T23:01:42.796Z,7.15
2022-08-25T23:04:10.921Z,7.97
2022-08-25T23:06:39.520Z,6.95
2022-08-25T23:09:08.534Z,7.13
2022-08-25T23:11:38.595Z,7.63
2022-08-25T23:14:10.502Z,7.30
2022-08-25T23:16:39.885Z,7.47
2022-08-25T23:19:13.962Z,7.05
2022-08-25T23:22:01.965Z,7.40
2022-08-25T23:24:30.778Z,6.78
2022-08-25T23:26:59.703Z,6.97
2022-08-25T23:29:28.250Z,7.97
2022-08-25T23:31:56.349Z,6.75
2022-08-25T23:34:24.661Z,7.43
2022-08-25T23:36:52.226Z,7.15
2022-08-25T23:39:21.779Z,6.90
2022-08-25T23:41:50.139Z,6.63
2022-08-25T23:44:19.253Z,7.88
2022-08-25T23:46:47.471Z,7.47
2022-08-25T23:49:18.371Z,7.80
2022-08-25T23:51:48.716Z,8.32
2022-08-25T23:54:18.034Z,7.13
2022-08-25T23:56:52.442Z,7.70
2022-08-25T23:59:24.009Z,7.68
